createdAt,value
2022-12-28T00:01:27.789Z,101127.76
2022-12-28T00:05:36.064Z,101121.81
2022-12-28T00:09:44.792Z,101118.49
2022-12-28T00:13:52.689Z,101115.68
2022-12-28T00:18:01.723Z,101110.25
2022-12-28T00:22:11.186Z,101108.84
2022-12-28T00:26:18.836Z,101109.72
2022-12-28T00:30:26.695Z,101105.19
2022-12-28T00:34:34.953Z,101100.63
2022-12-28T00:38:43.458Z,101101.17
2022-12-28T00:42:51.469Z,101096.99
2022-12-28T00:47:00.605Z,101096.13
2022-12-28T00:51:10.038Z,101099.11
2022-12-28T00:55:18.283Z,101087.38
2022-12-28T00:59:26.553Z,101079.66
2022-12-28T01:03:34.906Z,101073.54
2022-12-28T01:07:42.872Z,101062.35
2022-12-28T01:11:50.473Z,101058.17
2022-12-28T01:15:58.078Z,101056.09
2022-12-28T01:20:06.597Z,101054.36
2022-12-28T01:24:14.936Z,101044.39
2022-12-28T01:28:22.437Z,101048.73
2022-12-28T01:32:30.418Z,101051.52
2022-12-28T01:36:37.812Z,101041.38
2022-12-28T01:40:47.265Z,101044.89
2022-12-28T01:44:55.412Z,101037.73
2022-12-28T01:49:07.516Z,101037.38
2022-12-28T01:53:15.142Z,101035.47
2022-12-28T01:57:25.854Z,101035.80
2022-12-28T02:01:33.847Z,101030.23
2022-12-28T02:05:44.236Z,101017.09
2022-12-28T02:10:43.777Z,101008.87
2022-12-28T02:14:21.860Z,100999.42
2022-12-28T02:18:29.943Z,100994.55
2022-12-28T02:22:57.063Z,100982.65
2022-12-28T02:27:06.691Z,100973.25
2022-12-28T02:31:17.168Z,100971.66
2022-12-28T02:35:31.205Z,100969.88
2022-12-28T02:39:43.201Z,100968.66
2022-12-28T02:43:51.262Z,100963.08
2022-12-28T02:48:18.918Z,100957.29
2022-12-28T02:52:35.284Z,100957.66
2022-12-28T02:56:48.709Z,100953.84
2022-12-28T03:01:04.986Z,100943.36
2022-12-28T03:05:19.345Z,100937.40
2022-12-28T03:09:31.874Z,100932.13
2022-12-28T03:13:44.761Z,100929.83
2022-12-28T03:18:10.898Z,100929.81
2022-12-28T03:22:37.280Z,100922.98
2022-12-28T03:27:06.130Z,100914.40
2022-12-28T03:31:17.791Z,100908.30
2022-12-28T03:35:32.509Z,100902.86
2022-12-28T03:39:47.415Z,100891.98
2022-12-28T03:43:58.039Z,100881.11
2022-12-28T03:48:07.345Z,100881.29
2022-12-28T03:52:15.776Z,100880.77
2022-12-28T03:56:25.481Z,100876.95
2022-12-28T04:00:36.435Z,100873.85
2022-12-28T04:04:45.505Z,100864.74
2022-12-28T04:08:55.131Z,100856.48
2022-12-28T04:13:03.013Z,100852.08
2022-12-28T04:17:10.794Z,100851.73
2022-12-28T04:21:18.672Z,100842.64
2022-12-28T04:25:26.480Z,100840.40
2022-12-28T04:29:34.514Z,100830.81
2022-12-28T04:33:42.343Z,100823.46
2022-12-28T04:37:50.293Z,100818.69
2022-12-28T04:41:58.358Z,100811.67
2022-12-28T04:46:07.572Z,100804.50
2022-12-28T04:50:15.240Z,100802.59
2022-12-28T04:54:24.702Z,100794.92
2022-12-28T04:58:32.935Z,100788.14
2022-12-28T05:02:44.057Z,100784.10
2022-12-28T05:06:53.965Z,100778.79
2022-12-28T05:11:03.875Z,100775.63
2022-12-28T05:15:13.160Z,100768.98
2022-12-28T05:19:20.762Z,100766.87
2022-12-28T05:23:29.164Z,100756.21
2022-12-28T05:27:36.717Z,100755.67
2022-12-28T05:31:44.678Z,100749.21
2022-12-28T05:35:52.488Z,100745.84
2022-12-28T05:40:00.436Z,100741.44
2022-12-28T05:44:09.626Z,100742.65
2022-12-28T05:48:17.232Z,100740.90
2022-12-28T05:52:24.738Z,100726.73
2022-12-28T05:56:34.259Z,100724.77
2022-12-28T06:00:41.656Z,100720.19
2022-12-28T06:04:50.213Z,100720.45
2022-12-28T06:08:57.952Z,100721.58
2022-12-28T06:13:06.220Z,100718.34
2022-12-28T06:17:14.132Z,100719.50
2022-12-28T06:21:25.141Z,100721.25
2022-12-28T06:25:32.731Z,100726.31
2022-12-28T06:29:41.874Z,100731.94
2022-12-28T06:33:50.369Z,100729.86
2022-12-28T06:37:57.928Z,100732.81
2022-12-28T06:42:05.886Z,100732.96
2022-12-28T06:46:14.355Z,100729.05
2022-12-28T06:50:22.069Z,100729.73
2022-12-28T06:54:29.952Z,100729.77
2022-12-28T06:58:38.188Z,100718.61
2022-12-28T07:02:46.310Z,100714.06
2022-12-28T07:06:54.765Z,100709.39
2022-12-28T07:11:07.395Z,100711.10
2022-12-28T07:15:15.336Z,100706.13
2022-12-28T07:19:22.918Z,100710.59
2022-12-28T07:23:31.689Z,100707.74
2022-12-28T07:27:39.213Z,100699.16
2022-12-28T07:31:47.491Z,100691.27
2022-12-28T07:35:55.843Z,100689.89
2022-12-28T07:40:03.851Z,100686.20
2022-12-28T07:44:12.245Z,100687.73
2022-12-28T07:48:23.202Z,100681.66
2022-12-28T07:52:33.723Z,100678.95
2022-12-28T07:56:44.292Z,100677.49
2022-12-28T08:00:52.899Z,100678.30
2022-12-28T08:05:00.580Z,100678.24
2022-12-28T08:09:13.449Z,100680.60
2022-12-28T08:13:27.368Z,100679.09
2022-12-28T08:17:39.682Z,100675.55
2022-12-28T08:22:01.869Z,100676.20
2022-12-28T08:26:19.935Z,100678.30
2022-12-28T08:30:28.738Z,100664.99
2022-12-28T08:34:37.101Z,100662.42
2022-12-28T08:38:47.463Z,100655.63
2022-12-28T08:42:56.351Z,100648.33
2022-12-28T08:47:04.712Z,100656.33
2022-12-28T08:51:14.074Z,100654.11
2022-12-28T08:55:21.415Z,100653.86
2022-12-28T08:59:29.256Z,100656.06
2022-12-28T09:03:38.863Z,100656.77
2022-12-28T09:07:46.748Z,100640.06
2022-12-28T09:11:55.158Z,100633.04
2022-12-28T09:16:05.143Z,100632.07
2022-12-28T09:20:14.313Z,100627.60
2022-12-28T09:24:22.374Z,100621.90
2022-12-28T09:28:31.047Z,100615.36
2022-12-28T09:32:40.160Z,100610.41
2022-12-28T09:36:49.042Z,100607.86
2022-12-28T09:40:56.308Z,100600.79
2022-12-28T09:45:07.013Z,100602.60
2022-12-28T09:49:19.708Z,100604.41
2022-12-28T09:53:31.424Z,100591.65
2022-12-28T09:57:42.006Z,100587.19
2022-12-28T10:01:55.941Z,100577.12
2022-12-28T10:06:04.975Z,100567.95
2022-12-28T10:10:19.287Z,100557.42
2022-12-28T10:14:33.666Z,100545.60
2022-12-28T10:18:42.074Z,100539.23
2022-12-28T10:22:52.777Z,100537.91
2022-12-28T10:27:01.854Z,100541.23
2022-12-28T10:31:11.640Z,100536.98
2022-12-28T10:35:26.253Z,100538.38
2022-12-28T10:39:34.235Z,100535.84
2022-12-28T10:43:44.908Z,100527.86
2022-12-28T10:47:55.993Z,100515.25
2022-12-28T10:52:08.070Z,100502.94
2022-12-28T10:56:28.023Z,100493.11
2022-12-28T11:00:36.051Z,100488.20
2022-12-28T11:04:55.830Z,100479.24
2022-12-28T11:09:18.526Z,100475.77
2022-12-28T11:13:27.599Z,100470.90
2022-12-28T11:17:38.885Z,100461.62
2022-12-28T11:21:46.297Z,100456.78
2022-12-28T11:25:54.284Z,100442.98
2022-12-28T11:30:02.078Z,100434.64
2022-12-28T11:34:12.523Z,100422.58
2022-12-28T11:38:40.187Z,100413.42
2022-12-28T11:42:58.003Z,100409.64
2022-12-28T11:47:26.469Z,100388.45
2022-12-28T11:51:37.430Z,100370.97
2022-12-28T11:55:51.953Z,100364.03
2022-12-28T12:00:36.870Z,100357.64
2022-12-28T12:04:46.581Z,100354.36
2022-12-28T12:08:54.740Z,100348.97
2022-12-28T12:13:30.979Z,100334.20
2022-12-28T12:17:44.206Z,100324.85
2022-12-28T12:22:03.333Z,100319.95
2022-12-28T12:26:32.737Z,100320.15
2022-12-28T12:30:41.590Z,100320.63
2022-12-28T12:34:51.164Z,100319.02
2022-12-28T12:39:19.271Z,100314.64
2022-12-28T12:43:33.633Z,100307.89
2022-12-28T12:47:57.465Z,100305.81
2022-12-28T12:52:09.933Z,100296.29
2022-12-28T12:56:29.745Z,100286.08
2022-12-28T13:00:48.831Z,100282.11
2022-12-28T13:04:57.334Z,100278.84
2022-12-28T13:09:06.606Z,100271.60
2022-12-28T13:13:24.320Z,100271.14
2022-12-28T13:17:32.505Z,100273.96
2022-12-28T13:21:46.177Z,100272.05
2022-12-28T13:25:55.589Z,100270.70
2022-12-28T13:30:04.767Z,100265.13
2022-12-28T13:34:20.949Z,100263.48
2022-12-28T13:38:28.428Z,100260.48
2022-12-28T13:42:43.853Z,100252.06
2022-12-28T13:46:54.227Z,100252.58
2022-12-28T13:51:02.740Z,100250.09
2022-12-28T13:55:14.848Z,100243.65
2022-12-28T13:59:23.749Z,100244.48
2022-12-28T14:03:37.686Z,100246.41
2022-12-28T14:07:47.833Z,100247.44
2022-12-28T14:11:57.410Z,100245.29
2022-12-28T14:16:05.876Z,100244.58
2022-12-28T14:20:15.551Z,100237.99
2022-12-28T14:24:23.348Z,100237.73
2022-12-28T14:28:35.328Z,100235.34
2022-12-28T14:32:45.010Z,100235.39
2022-12-28T14:36:55.005Z,100233.02
2022-12-28T14:41:03.702Z,100230.94
2022-12-28T14:46:07.615Z,100223.98
2022-12-28T14:50:21.090Z,100215.17
2022-12-28T14:54:29.468Z,100210.20
2022-12-28T14:58:50.646Z,100201.55
2022-12-28T15:02:59.553Z,100194.41
2022-12-28T15:07:08.431Z,100197.04
2022-12-28T15:11:16.173Z,100206.38
2022-12-28T15:15:25.063Z,100203.20
2022-12-28T15:19:32.960Z,100208.24
2022-12-28T15:23:42.063Z,100198.49
2022-12-28T15:27:54.207Z,100195.16
2022-12-28T15:32:02.138Z,100193.45
2022-12-28T15:36:17.260Z,100190.80
2022-12-28T15:40:25.703Z,100196.25
2022-12-28T15:44:33.916Z,100202.11
2022-12-28T15:48:47.455Z,100205.65
2022-12-28T15:52:55.890Z,100204.93
2022-12-28T15:57:03.553Z,100201.20
2022-12-28T16:01:11.178Z,100202.79
2022-12-28T16:05:18.574Z,100207.28
2022-12-28T16:09:26.320Z,100212.63
2022-12-28T16:13:34.080Z,100220.95
2022-12-28T16:17:52.924Z,100221.60
2022-12-28T16:22:07.280Z,100212.60
2022-12-28T16:26:15.698Z,100215.83
2022-12-28T16:30:23.735Z,100218.45
2022-12-28T16:34:32.652Z,100214.07
2022-12-28T16:38:42.071Z,100215.48
2022-12-28T16:42:49.519Z,100217.27
2022-12-28T16:46:59.975Z,100212.53
2022-12-28T16:51:08.928Z,100207.45
2022-12-28T16:55:16.822Z,100202.38
2022-12-28T16:59:26.871Z,100197.52
2022-12-28T17:03:34.402Z,100187.65
2022-12-28T17:07:42.535Z,100186.81
2022-12-28T17:11:51.186Z,100188.55
2022-12-28T17:16:02.496Z,100185.05
2022-12-28T17:20:12.144Z,100183.58
2022-12-28T17:24:19.548Z,100178.27
2022-12-28T17:28:27.637Z,100178.48
2022-12-28T17:32:39.503Z,100173.71
2022-12-28T17:36:47.088Z,100176.13
2022-12-28T17:40:55.027Z,100181.89
2022-12-28T17:45:09.125Z,100183.06
2022-12-28T17:49:19.502Z,100178.25
2022-12-28T17:53:27.241Z,100184.88
2022-12-28T17:57:38.638Z,100179.00
2022-12-28T18:01:47.068Z,100189.17
2022-12-28T18:05:55.282Z,100183.89
2022-12-28T18:10:02.720Z,100186.83
2022-12-28T18:14:13.343Z,100186.95
2022-12-28T18:18:21.351Z,100183.52
2022-12-28T18:22:29.013Z,100183.04
2022-12-28T18:26:36.558Z,100179.50
2022-12-28T18:30:44.917Z,100174.88
2022-12-28T18:34:53.352Z,100166.19
2022-12-28T18:39:01.311Z,100167.24
2022-12-28T18:43:09.508Z,100164.39
2022-12-28T18:47:17.398Z,100157.59
2022-12-28T18:51:25.704Z,100154.79
2022-12-28T18:55:33.801Z,100154.41
2022-12-28T18:59:41.069Z,100146.63
2022-12-28T19:03:50.888Z,100143.52
2022-12-28T19:07:59.187Z,100150.02
2022-12-28T19:12:07.097Z,100142.66
2022-12-28T19:16:17.483Z,100135.84
2022-12-28T19:20:25.485Z,100138.90
2022-12-28T19:24:33.061Z,100139.69
2022-12-28T19:28:41.533Z,100151.11
2022-12-28T19:32:49.307Z,100145.81
2022-12-28T19:36:57.539Z,100148.20
2022-12-28T19:41:09.080Z,100143.55
2022-12-28T19:45:18.520Z,100136.27
2022-12-28T19:49:26.963Z,100128.80
2022-12-28T19:53:34.873Z,100120.54
2022-12-28T19:57:42.136Z,100124.19
2022-12-28T20:01:50.496Z,100120.85
2022-12-28T20:05:58.911Z,100116.73
2022-12-28T20:10:12.047Z,100105.45
2022-12-28T20:14:24.987Z,100098.46
2022-12-28T20:18:33.199Z,100101.59
2022-12-28T20:22:42.747Z,100100.33
2022-12-28T20:26:51.542Z,100098.55
2022-12-28T20:31:04.720Z,100096.40
2022-12-28T20:35:15.669Z,100098.63
2022-12-28T20:39:23.059Z,100097.70
2022-12-28T20:43:34.291Z,100100.42
2022-12-28T20:47:45.039Z,100100.50
2022-12-28T20:51:56.435Z,100096.73
2022-12-28T20:56:10.892Z,100092.70
2022-12-28T21:00:19.322Z,100097.09
2022-12-28T21:04:27.564Z,100100.68
2022-12-28T21:08:36.317Z,100103.94
2022-12-28T21:12:45.752Z,100099.70
2022-12-28T21:16:53.821Z,100099.53
2022-12-28T21:21:01.455Z,100106.21
2022-12-28T21:25:11.521Z,100109.94
2022-12-28T21:29:25.548Z,100111.17
2022-12-28T21:33:34.710Z,100109.41
2022-12-28T21:37:42.566Z,100100.92
2022-12-28T21:41:50.801Z,100095.34
2022-12-28T21:46:03.338Z,100086.07
2022-12-28T21:50:13.441Z,100080.30
2022-12-28T21:54:22.944Z,100070.22
2022-12-28T21:58:30.631Z,100059.72
2022-12-28T22:02:52.451Z,100064.02
2022-12-28T22:07:02.073Z,100063.02
2022-12-28T22:11:25.827Z,100069.30
2022-12-28T22:15:50.814Z,100063.43
2022-12-28T22:19:58.539Z,100057.22
2022-12-28T22:24:06.567Z,100066.32
2022-12-28T22:28:15.723Z,100059.67
2022-12-28T22:32:24.139Z,100056.36
2022-12-28T22:36:32.195Z,100033.87
2022-12-28T22:40:40.071Z,100037.86
2022-12-28T22:44:47.855Z,100039.22
2022-12-28T22:48:55.290Z,100028.86
2022-12-28T22:53:05.153Z,100019.83
2022-12-28T22:57:13.063Z,100021.27
2022-12-28T23:01:22.743Z,100021.12
2022-12-28T23:05:30.671Z,100024.72
2022-12-28T23:09:37.936Z,100021.86
2022-12-28T23:13:45.844Z,100018.48
2022-12-28T23:18:13.764Z,100022.45
2022-12-28T23:22:41.067Z,100013.85
2022-12-28T23:27:09.117Z,99998.72
2022-12-28T23:31:16.704Z,99987.46
2022-12-28T23:35:25.965Z,99976.70
2022-12-28T23:39:33.676Z,99974.74
2022-12-28T23:43:42.165Z,99961.08
2022-12-28T23:47:49.882Z,99965.48
2022-12-28T23:51:57.438Z,99962.61
2022-12-28T23:56:05.087Z,99960.88
